Holon, Israel
Current Conditions -  °F | °C
As of 3:07 PM on Friday 21 Nov 2014 (Local Time) from LLSD Reporting Station
Thunderstorm Thunderstorm  
Wind Chill: 68°   Ceiling: 3000
Heat Index: 68°   Visibility: 6mi
Dew Point: 64°   Wind: 22mph
Humidity: 88%   Direction: 250°WSW
Pressure: 29.85"   Gusts: 33mph
Location:  32.02°N, 34.76°E
Report Text: LLSD 211207Z 25019G29KT 220V290 9999 -TSRA FEW020CB BKN03020/18 Q1011 RERA
Loading
Personal Weather Stations






























Interactive Weather Map New forecast layout! Learn more

10-Day Weather Forecast

Advertisements
Track Severe Weather on mobile